X  Sluiten METAR luchtvaart weer gegevens      EHAM Amsterdam Airport Schiphol
Temperatuur
6°C Temperatuur
3°C Dauwpunt
81% Vochtigheid



Wind
27 KM/U
17 MPH
8 M/S
15 KTS



190°
Zuid
Huidig weer

Wat bewolking Wat bewolking
Luchtdruk 986.79 (hPa) - 29.14 (inHg)
Zicht 6 (mijl) - 9.7 (km)
Vliegveld
Vliegveld code EHAM

Locatie : Amsterdam Airport Schiphol
Afstand: 25 (km)

Metar:
EHAM 230655Z 19015KT 9999 FEW015 BKN017 BKN026 06/03 Q0987 TEMPO 7000 SHRA SCT018CB

Tijd: 23-02-2024 06:55 CET